Time;durP1;ratioP1;P1;durP2;ratioP2;P2;SDS_P1;SDS_P2;PMS_P1;PMS_P2;Temp;Humidity;BMP_temperature;BMP_pressure;BME280_temperature;BME280_humidity;BME280_pressure;Samples;Min_cycle;Max_cycle;Signal;HPM_P1;HPM_P2
2023/02/05 00:00:16;;;;;;;1.70;1.60;;;-1.20;99.90;;;;;;4891928;29;20185;-77
2023/02/05 00:02:42;;;;;;;2.63;1.87;;;-1.30;99.90;;;;;;4900506;29;20422;-77
2023/02/05 00:05:08;;;;;;;2.57;1.70;;;-1.30;99.90;;;;;;4891188;29;21054;-77
2023/02/05 00:07:34;;;;;;;2.10;1.90;;;-1.30;99.90;;;;;;4904287;29;20484;-77
2023/02/05 00:09:59;;;;;;;6.03;1.77;;;-1.30;99.90;;;;;;4888452;29;20200;-77
2023/02/05 00:12:25;;;;;;;2.20;1.50;;;-1.30;99.90;;;;;;4898609;29;20179;-77
2023/02/05 00:14:51;;;;;;;4.30;1.90;;;-1.30;99.90;;;;;;4893802;29;20576;-77
2023/02/05 00:17:17;;;;;;;1.53;1.43;;;-1.30;99.90;;;;;;4888491;29;20245;-77
2023/02/05 00:19:42;;;;;;;1.83;1.73;;;-1.30;99.90;;;;;;4897645;29;20429;-77
2023/02/05 00:22:08;;;;;;;2.50;1.70;;;-1.30;99.90;;;;;;4885637;29;20177;-77
2023/02/05 00:24:34;;;;;;;5.17;2.00;;;-1.30;99.90;;;;;;4893883;29;20632;-76
2023/02/05 00:26:59;;;;;;;1.97;1.80;;;-1.30;99.90;;;;;;4883117;29;20691;-76
2023/02/05 00:29:25;;;;;;;2.90;1.80;;;-1.30;99.90;;;;;;4894175;29;20181;-77
2023/02/05 00:31:51;;;;;;;4.43;1.57;;;-1.30;99.90;;;;;;4885891;29;20192;-77
2023/02/05 00:34:17;;;;;;;2.80;1.67;;;-1.30;99.90;;;;;;4888104;29;20224;-77
2023/02/05 00:36:43;;;;;;;2.30;2.10;;;-1.30;99.90;;;;;;4892301;29;20775;-77
2023/02/05 00:39:10;;;;;;;2.43;1.90;;;-1.30;99.90;;;;;;4890614;29;20672;-77
2023/02/05 00:41:36;;;;;;;1.73;1.63;;;-1.40;99.90;;;;;;4892071;29;20178;-77
2023/02/05 00:44:02;;;;;;;1.87;1.77;;;-1.40;99.90;;;;;;4883537;29;20449;-77
2023/02/05 00:46:28;;;;;;;1.93;1.73;;;-1.40;99.90;;;;;;4890863;29;20429;-77
2023/02/05 00:48:53;;;;;;;3.30;1.70;;;-1.30;99.90;;;;;;4885194;29;20428;-77
2023/02/05 00:51:19;;;;;;;2.83;1.73;;;-1.40;99.90;;;;;;4885922;29;20196;-77
2023/02/05 00:53:45;;;;;;;2.00;1.83;;;-1.30;99.90;;;;;;4889574;29;20648;-77
2023/02/05 00:56:10;;;;;;;1.53;1.43;;;-1.40;99.90;;;;;;4891571;29;20260;-78
2023/02/05 00:58:36;;;;;;;3.40;2.20;;;-1.40;99.90;;;;;;4889163;29;20232;-77
2023/02/05 01:01:02;;;;;;;2.10;1.93;;;-1.40;99.90;;;;;;4892004;29;20182;-76
2023/02/05 01:03:27;;;;;;;4.50;1.80;;;-1.50;99.90;;;;;;4883465;29;20208;-77
2023/02/05 01:05:53;;;;;;;3.10;2.13;;;-1.50;99.90;;;;;;4889641;29;20451;-77
2023/02/05 01:08:19;;;;;;;1.83;1.57;;;-1.60;99.90;;;;;;4891035;29;20184;-77
2023/02/05 01:10:47;;;;;;;2.70;1.90;;;-1.60;99.90;;;;;;4895461;29;20184;-76
2023/02/05 01:13:13;;;;;;;1.97;1.50;;;-1.70;99.90;;;;;;4877608;29;20659;-76
2023/02/05 01:15:38;;;;;;;2.63;1.90;;;-1.80;99.90;;;;;;4888006;29;20459;-78
2023/02/05 01:18:04;;;;;;;3.23;1.73;;;-1.80;99.90;;;;;;4883646;29;20463;-77
2023/02/05 01:20:30;;;;;;;3.10;1.90;;;-1.80;99.90;;;;;;4895256;29;20213;-77
2023/02/05 01:22:56;;;;;;;2.10;1.90;;;-1.90;99.90;;;;;;4892699;29;20696;-77
2023/02/05 01:25:24;;;;;;;3.13;2.50;;;-1.90;99.90;;;;;;4888112;29;20200;-77
2023/02/05 01:27:50;;;;;;;2.90;2.20;;;-1.90;99.90;;;;;;4888117;29;20444;-76
2023/02/05 01:30:15;;;;;;;3.83;2.33;;;-2.00;99.90;;;;;;4887426;29;20435;-77
2023/02/05 01:32:41;;;;;;;1.90;1.67;;;-2.00;99.90;;;;;;4893655;29;20184;-76
2023/02/05 01:35:07;;;;;;;1.77;1.67;;;-2.10;99.90;;;;;;4886104;29;20223;-76
2023/02/05 01:37:33;;;;;;;3.10;2.00;;;-2.10;99.90;;;;;;4888750;29;20204;-76
2023/02/05 01:39:59;;;;;;;3.17;1.83;;;-2.10;99.90;;;;;;4892751;29;20479;-77
2023/02/05 01:42:28;;;;;;;4.70;2.53;;;-2.10;99.90;;;;;;4890585;29;20172;-76
2023/02/05 01:45:20;;;;;;;5.07;2.37;;;-2.20;99.90;;;;;;4885458;29;20197;-77
2023/02/05 01:47:46;;;;;;;4.40;2.53;;;-2.20;99.90;;;;;;4891810;29;20436;-77
2023/02/05 01:50:12;;;;;;;2.07;1.90;;;-2.10;99.90;;;;;;4895115;29;20428;-76
2023/02/05 01:52:37;;;;;;;2.30;1.93;;;-2.30;99.90;;;;;;4885946;29;21074;-77
2023/02/05 01:55:06;;;;;;;1.73;1.60;;;-2.30;99.90;;;;;;4890204;29;20448;-75
2023/02/05 01:57:32;;;;;;;3.67;2.27;;;-2.40;99.90;;;;;;4893530;29;20211;-77
2023/02/05 01:59:58;;;;;;;5.03;2.03;;;-2.40;99.90;;;;;;4884125;29;20422;-78
2023/02/05 02:02:24;;;;;;;3.47;1.90;;;-2.40;99.90;;;;;;4892692;29;20439;-76
2023/02/05 02:04:53;;;;;;;2.10;1.80;;;-2.50;99.90;;;;;;4884786;29;21077;-77
2023/02/05 02:07:23;;;;;;;2.17;1.80;;;-2.50;99.90;;;;;;4896059;29;20533;-77
2023/02/05 02:09:51;;;;;;;2.10;1.90;;;-2.50;99.90;;;;;;4885914;29;20893;-77
2023/02/05 02:12:38;;;;;;;2.27;2.17;;;-2.50;99.90;;;;;;4896280;29;20430;-76
2023/02/05 02:15:13;;;;;;;1.70;1.33;;;-2.50;99.90;;;;;;4887434;29;20814;-77
2023/02/05 02:17:41;;;;;;;1.70;1.60;;;-2.60;99.90;;;;;;4886803;29;20467;-77
2023/02/05 02:20:18;;;;;;;3.03;1.53;;;-2.50;99.90;;;;;;4896343;29;20927;-76
2023/02/05 02:23:26;;;;;;;2.23;2.10;;;-2.60;99.90;;;;;;4878064;29;20914;-77
2023/02/05 02:26:13;;;;;;;4.87;1.90;;;-2.60;99.90;;;;;;4884916;29;20454;-78
2023/02/05 02:28:49;;;;;;;1.70;1.60;;;-2.60;99.90;;;;;;4896807;29;20740;-76
2023/02/05 02:31:26;;;;;;;2.30;2.00;;;-2.60;99.90;;;;;;4889237;29;20771;-76
2023/02/05 02:33:59;;;;;;;2.77;2.13;;;-2.60;99.90;;;;;;4895085;29;20892;-75
2023/02/05 02:36:36;;;;;;;1.70;1.57;;;-2.60;99.90;;;;;;4898515;29;20416;-76
2023/02/05 02:39:10;;;;;;;6.43;1.77;;;-2.60;99.90;;;;;;4896848;29;20463;-76
2023/02/05 02:41:45;;;;;;;3.80;2.37;;;-2.60;99.90;;;;;;4895215;29;20420;-77
2023/02/05 02:44:10;;;;;;;2.83;1.87;;;-2.70;99.90;;;;;;4877124;29;20507;-76
2023/02/05 02:46:53;;;;;;;1.97;1.70;;;-2.70;99.90;;;;;;4889660;29;20517;-76
2023/02/05 02:49:47;;;;;;;2.03;1.83;;;-2.70;99.90;;;;;;4883887;29;20180;-76
2023/02/05 02:52:17;;;;;;;2.63;2.37;;;-2.80;99.90;;;;;;4880608;29;20837;-77
2023/02/05 02:54:46;;;;;;;1.73;1.63;;;-2.70;99.90;;;;;;4889972;29;20497;-76
2023/02/05 02:57:15;;;;;;;2.73;2.00;;;-2.70;99.90;;;;;;4892540;29;20425;-76
2023/02/05 02:59:43;;;;;;;1.97;1.87;;;-2.60;99.90;;;;;;4892742;29;20688;-76
2023/02/05 03:02:11;;;;;;;2.50;2.30;;;-2.50;99.90;;;;;;4891535;29;20912;-76
2023/02/05 03:04:40;;;;;;;2.20;2.00;;;-2.60;99.90;;;;;;4882912;29;20454;-76
2023/02/05 03:07:16;;;;;;;2.57;2.13;;;-2.70;99.90;;;;;;4893195;29;20480;-76
2023/02/05 03:09:45;;;;;;;2.10;1.90;;;-2.60;99.90;;;;;;4888767;29;20875;-76
2023/02/05 03:12:10;;;;;;;3.20;2.00;;;-2.60;99.90;;;;;;4897533;29;20420;-76
2023/02/05 03:14:37;;;;;;;2.70;2.37;;;-2.50;99.90;;;;;;4888268;29;20440;-76
2023/02/05 03:17:03;;;;;;;3.83;2.60;;;-2.50;99.90;;;;;;4875541;29;20169;-76
2023/02/05 03:19:29;;;;;;;4.40;2.17;;;-2.50;99.90;;;;;;4895228;29;20421;-76
2023/02/05 03:21:59;;;;;;;5.47;2.70;;;-2.60;99.90;;;;;;4883565;29;20494;-77
2023/02/05 03:24:26;;;;;;;3.40;2.47;;;-2.50;99.90;;;;;;4894035;29;20813;-76
2023/02/05 03:26:52;;;;;;;2.33;2.13;;;-2.60;99.90;;;;;;4890519;29;20484;-75
2023/02/05 03:29:25;;;;;;;2.57;2.37;;;-2.60;99.90;;;;;;4895332;29;20247;-75
2023/02/05 03:32:03;;;;;;;5.07;2.83;;;-2.50;99.90;;;;;;4893136;29;20188;-74
2023/02/05 03:34:46;;;;;;;3.00;2.73;;;-2.50;99.90;;;;;;4893777;29;20463;-77
2023/02/05 03:37:20;;;;;;;2.80;2.07;;;-2.50;99.90;;;;;;4889962;29;20948;-75
2023/02/05 03:40:08;;;;;;;9.07;3.43;;;-2.50;99.90;;;;;;4883893;29;20519;-75
2023/02/05 03:42:48;;;;;;;2.87;2.60;;;-2.60;99.90;;;;;;4890896;29;20413;-76
2023/02/05 03:45:40;;;;;;;2.80;2.40;;;-2.60;99.90;;;;;;4889049;29;20444;-77
2023/02/05 03:48:12;;;;;;;2.93;2.63;;;-2.60;99.90;;;;;;4886043;29;20436;-75
2023/02/05 03:51:11;;;;;;;3.27;2.13;;;-2.50;99.90;;;;;;4887290;29;20431;-75
2023/02/05 03:53:46;;;;;;;4.20;2.70;;;-2.50;99.90;;;;;;4888664;29;20489;-76
2023/02/05 03:56:24;;;;;;;2.33;2.13;;;-2.50;99.90;;;;;;4883958;29;20504;-76
2023/02/05 03:58:54;;;;;;;3.30;2.17;;;-2.40;99.90;;;;;;4883945;29;20990;-75
2023/02/05 04:01:20;;;;;;;4.43;2.10;;;-2.40;99.90;;;;;;4887132;29;20418;-75
2023/02/05 04:03:46;;;;;;;5.57;2.30;;;-2.40;99.90;;;;;;4892102;29;20475;-75
2023/02/05 04:06:12;;;;;;;3.60;2.60;;;-2.40;99.90;;;;;;4892075;29;20525;-75
2023/02/05 04:08:38;;;;;;;3.00;2.50;;;-2.40;99.90;;;;;;4886811;29;20524;-75
2023/02/05 04:11:03;;;;;;;4.10;2.40;;;-2.30;99.90;;;;;;4890097;29;20771;-75
2023/02/05 04:13:29;;;;;;;2.70;2.40;;;-2.30;99.90;;;;;;4891654;29;20240;-76
2023/02/05 04:15:54;;;;;;;3.13;2.50;;;-2.30;99.90;;;;;;4881396;29;20208;-76
2023/02/05 04:18:20;;;;;;;3.47;3.03;;;-2.20;99.90;;;;;;4891010;29;20205;-75
2023/02/05 04:20:46;;;;;;;3.13;2.90;;;-2.20;99.90;;;;;;4896385;29;20203;-76
2023/02/05 04:23:11;;;;;;;3.60;3.30;;;-2.20;99.90;;;;;;4890631;29;20182;-75
2023/02/05 04:25:38;;;;;;;3.20;2.73;;;-2.20;99.90;;;;;;4891259;29;20205;-75
2023/02/05 04:28:05;;;;;;;2.27;2.17;;;-2.20;99.90;;;;;;4891886;29;20219;-76
2023/02/05 04:30:32;;;;;;;5.00;2.60;;;-2.10;99.90;;;;;;4894824;29;20481;-76
2023/02/05 04:32:58;;;;;;;5.07;2.63;;;-2.10;99.90;;;;;;4896265;29;20447;-75
2023/02/05 04:35:23;;;;;;;2.27;2.10;;;-2.10;99.90;;;;;;4893886;29;20468;-75
2023/02/05 04:37:49;;;;;;;2.70;2.50;;;-2.10;99.90;;;;;;4881906;29;20258;-75
2023/02/05 04:40:15;;;;;;;3.30;3.00;;;-2.00;99.90;;;;;;4892034;29;20915;-75
2023/02/05 04:42:41;;;;;;;1.70;1.60;;;-2.00;99.90;;;;;;4890184;29;20666;-75
2023/02/05 04:45:07;;;;;;;2.13;1.67;;;-2.00;99.90;;;;;;4887106;29;20487;-76
2023/02/05 04:50:00;;;;;;;3.80;2.60;;;-2.10;99.90;;;;;;4884828;29;20480;-69
2023/02/05 04:52:27;;;;;;;2.77;2.17;;;-2.10;99.90;;;;;;4892701;29;20414;-71
2023/02/05 04:54:53;;;;;;;3.43;2.43;;;-2.10;99.90;;;;;;4894466;29;20184;-70
2023/02/05 04:57:18;;;;;;;2.63;1.87;;;-2.10;99.90;;;;;;4897927;29;20415;-69
2023/02/05 04:59:44;;;;;;;5.73;2.03;;;-2.00;99.90;;;;;;4878178;29;20238;-69
2023/02/05 05:02:09;;;;;;;2.70;2.20;;;-1.90;99.90;;;;;;4867676;29;20177;-69
2023/02/05 05:04:35;;;;;;;2.10;1.90;;;-1.90;99.90;;;;;;4878114;29;20199;-68
2023/02/05 05:07:01;;;;;;;3.03;2.73;;;-1.90;99.90;;;;;;4875525;29;20191;-69
2023/02/05 05:09:27;;;;;;;4.30;3.10;;;-1.90;99.90;;;;;;4877405;29;21213;-69
2023/02/05 05:11:53;;;;;;;3.63;2.50;;;-1.90;99.90;;;;;;4883310;29;20204;-69
2023/02/05 05:14:19;;;;;;;2.13;1.93;;;-1.90;99.90;;;;;;4874598;29;20177;-69
2023/02/05 05:16:45;;;;;;;3.80;2.40;;;-1.90;99.90;;;;;;4876302;29;20917;-69
2023/02/05 05:19:11;;;;;;;9.00;2.27;;;-1.90;99.90;;;;;;4875127;29;20508;-70
2023/02/05 05:21:37;;;;;;;2.60;2.40;;;-1.90;99.90;;;;;;4875790;29;20169;-69
2023/02/05 05:24:03;;;;;;;3.50;2.57;;;-1.90;99.90;;;;;;4875069;29;20424;-68
2023/02/05 05:26:28;;;;;;;3.73;2.30;;;-1.90;99.90;;;;;;4876638;29;20177;-69
2023/02/05 05:28:55;;;;;;;2.10;1.90;;;-1.80;99.90;;;;;;4877313;29;20196;-69
2023/02/05 05:31:22;;;;;;;2.50;2.00;;;-1.80;99.90;;;;;;4872992;29;20605;-69
2023/02/05 05:33:48;;;;;;;4.70;1.90;;;-1.80;99.90;;;;;;4883756;29;20425;-70
2023/02/05 05:36:14;;;;;;;3.27;1.83;;;-1.90;99.90;;;;;;4871771;29;20707;-70
2023/02/05 05:38:40;;;;;;;3.57;2.83;;;-1.90;99.90;;;;;;4875940;29;20469;-72
2023/02/05 05:43:53;;;;;;;2.20;2.10;;;-1.80;99.90;;;;;;4872177;29;20829;-69
2023/02/05 05:46:21;;;;;;;2.50;2.30;;;-1.80;99.90;;;;;;4877185;29;20864;-70
2023/02/05 05:48:54;;;;;;;2.57;2.33;;;-1.80;99.90;;;;;;4874843;29;20467;-69
2023/02/05 05:51:20;;;;;;;3.57;3.00;;;-1.80;99.90;;;;;;4874719;29;20429;-70
2023/02/05 05:53:47;;;;;;;2.90;2.00;;;-1.90;99.90;;;;;;4872866;29;20778;-70
2023/02/05 05:56:12;;;;;;;3.57;1.80;;;-1.90;99.90;;;;;;4880022;29;20598;-70
2023/02/05 05:58:38;;;;;;;2.90;2.60;;;-1.90;99.90;;;;;;4876890;29;20465;-69
2023/02/05 06:01:05;;;;;;;4.80;2.53;;;-1.90;99.90;;;;;;4874436;29;20492;-70
2023/02/05 06:03:30;;;;;;;2.30;2.10;;;-1.90;99.90;;;;;;4884548;29;20275;-70
2023/02/05 06:05:56;;;;;;;2.40;2.30;;;-1.90;99.90;;;;;;4877142;29;20508;-70
2023/02/05 06:08:22;;;;;;;2.70;2.50;;;-1.90;99.90;;;;;;4873657;29;20232;-69
2023/02/05 06:10:47;;;;;;;2.00;1.83;;;-1.90;99.90;;;;;;4872652;29;20936;-69
2023/02/05 06:13:13;;;;;;;4.20;2.10;;;-1.90;99.90;;;;;;4873798;29;20264;-69
2023/02/05 06:15:38;;;;;;;3.27;2.40;;;-1.90;99.90;;;;;;4876852;29;20204;-70
2023/02/05 06:18:04;;;;;;;4.20;2.27;;;-2.00;99.90;;;;;;4876307;29;20216;-69
2023/02/05 06:20:30;;;;;;;2.90;2.60;;;-1.90;99.90;;;;;;4875394;29;20177;-69
2023/02/05 06:22:55;;;;;;;3.13;1.93;;;-1.90;99.90;;;;;;4869096;29;20201;-69
2023/02/05 06:25:21;;;;;;;3.67;2.30;;;-1.90;99.90;;;;;;4874274;29;20184;-69
2023/02/05 06:27:46;;;;;;;4.23;2.30;;;-1.80;99.90;;;;;;4878056;29;20205;-69
2023/02/05 06:30:12;;;;;;;1.73;1.57;;;-1.80;99.90;;;;;;4877135;29;20252;-69
2023/02/05 06:32:38;;;;;;;3.00;2.10;;;-1.70;99.90;;;;;;4878988;29;20687;-70
2023/02/05 06:35:04;;;;;;;2.63;2.17;;;-1.70;99.90;;;;;;4878935;29;20188;-69
2023/02/05 06:37:30;;;;;;;2.10;1.70;;;-1.70;99.90;;;;;;4883346;29;20272;-70
2023/02/05 06:39:55;;;;;;;2.07;1.97;;;-1.60;99.90;;;;;;4875064;29;20525;-70
2023/02/05 06:42:21;;;;;;;2.17;1.97;;;-1.60;99.90;;;;;;4878841;29;20760;-69
2023/02/05 06:44:47;;;;;;;2.93;2.57;;;-1.50;99.90;;;;;;4880310;29;20169;-70
2023/02/05 06:47:13;;;;;;;2.27;2.10;;;-1.50;99.90;;;;;;4886112;29;20453;-68
2023/02/05 06:49:38;;;;;;;3.67;1.93;;;-1.40;99.90;;;;;;4878006;29;20215;-68
2023/02/05 06:52:04;;;;;;;2.70;2.13;;;-1.40;99.90;;;;;;4877271;29;20197;-69
2023/02/05 06:54:30;;;;;;;5.33;2.50;;;-1.40;99.90;;;;;;4878816;29;20543;-69
2023/02/05 06:56:56;;;;;;;2.57;2.23;;;-1.30;99.90;;;;;;4876426;29;20446;-69
2023/02/05 06:59:22;;;;;;;2.93;2.13;;;-1.30;99.90;;;;;;4877604;29;20586;-69
2023/02/05 07:01:48;;;;;;;4.93;1.80;;;-1.20;99.90;;;;;;4881435;29;20693;-70
2023/02/05 07:04:13;;;;;;;4.10;2.40;;;-1.20;99.90;;;;;;4876490;29;20177;-69
2023/02/05 07:06:39;;;;;;;2.37;2.20;;;-1.10;99.90;;;;;;4876745;29;20239;-70
2023/02/05 07:09:05;;;;;;;8.33;2.30;;;-1.10;99.90;;;;;;4883095;29;20204;-69
2023/02/05 07:11:31;;;;;;;4.23;2.30;;;-1.10;99.90;;;;;;4877043;29;20317;-68
2023/02/05 07:13:59;;;;;;;14.70;3.20;;;-1.10;99.90;;;;;;4883016;29;20924;-70
2023/02/05 07:16:25;;;;;;;2.93;2.37;;;-1.00;99.90;;;;;;4885874;29;20185;-68
2023/02/05 07:18:51;;;;;;;3.00;2.67;;;-1.00;99.90;;;;;;4880153;29;20482;-67
2023/02/05 07:21:17;;;;;;;2.33;2.10;;;-0.90;99.90;;;;;;4884571;29;20173;-71
2023/02/05 07:23:43;;;;;;;4.90;2.30;;;-0.90;99.90;;;;;;4872960;29;20510;-69
2023/02/05 07:26:14;;;;;;;2.87;2.67;;;-0.80;99.90;;;;;;4890205;29;20499;-68
2023/02/05 07:28:40;;;;;;;4.73;2.87;;;-0.90;99.90;;;;;;4878384;29;20466;-69
2023/02/05 07:31:11;;;;;;;6.17;3.10;;;-0.80;99.90;;;;;;4879251;29;20777;-69
2023/02/05 07:33:37;;;;;;;6.27;3.10;;;-0.80;99.90;;;;;;4878440;29;20462;-70
2023/02/05 07:36:07;;;;;;;4.20;3.80;;;-0.80;99.90;;;;;;4880057;29;20719;-71
2023/02/05 07:38:34;;;;;;;5.53;2.60;;;-0.70;99.90;;;;;;4875643;29;20547;-70
2023/02/05 07:41:03;;;;;;;4.10;3.03;;;-0.70;99.90;;;;;;4877534;29;20869;-70
2023/02/05 07:43:29;;;;;;;6.07;3.60;;;-0.60;99.90;;;;;;4886781;29;20401;-70
2023/02/05 07:45:56;;;;;;;2.90;2.40;;;-0.60;99.90;;;;;;4876200;29;20910;-70
2023/02/05 07:48:22;;;;;;;2.77;2.57;;;-0.60;99.90;;;;;;4885041;29;20456;-70
2023/02/05 07:50:48;;;;;;;2.83;2.63;;;-0.50;99.90;;;;;;4876320;29;20430;-69
2023/02/05 07:53:13;;;;;;;3.07;2.10;;;-0.50;99.90;;;;;;4876998;29;20644;-70
2023/02/05 07:55:39;;;;;;;4.40;2.97;;;-0.60;99.90;;;;;;4877499;29;20200;-69
2023/02/05 07:58:04;;;;;;;2.63;1.90;;;-0.60;99.90;;;;;;4873460;29;20634;-69
2023/02/05 08:00:31;;;;;;;3.23;2.53;;;-0.60;99.90;;;;;;4876589;29;20180;-69
2023/02/05 08:02:56;;;;;;;3.00;2.70;;;-0.50;99.90;;;;;;4875536;29;20173;-70
2023/02/05 08:05:22;;;;;;;2.70;2.50;;;-0.50;99.90;;;;;;4879273;29;20932;-69
2023/02/05 08:07:48;;;;;;;4.60;2.53;;;-0.50;99.90;;;;;;4874598;29;20198;-70
2023/02/05 08:10:14;;;;;;;3.10;2.23;;;-0.40;99.90;;;;;;4875770;29;20288;-70
2023/02/05 08:12:40;;;;;;;2.73;2.47;;;-0.30;99.90;;;;;;4874800;29;20185;-70
2023/02/05 08:15:05;;;;;;;3.27;1.97;;;-0.30;99.90;;;;;;4878309;29;20417;-70
2023/02/05 08:17:31;;;;;;;7.30;4.03;;;-0.20;99.90;;;;;;4873351;29;20181;-69
2023/02/05 08:19:58;;;;;;;2.70;2.40;;;-0.20;99.90;;;;;;4867535;29;20438;-70
2023/02/05 08:22:24;;;;;;;2.63;2.43;;;-0.30;99.90;;;;;;4871100;29;20533;-70
2023/02/05 08:24:50;;;;;;;3.20;2.90;;;-0.20;99.90;;;;;;4880112;29;20454;-69
2023/02/05 08:27:15;;;;;;;3.30;3.00;;;-0.20;99.90;;;;;;4877406;29;20177;-69
2023/02/05 08:29:41;;;;;;;2.70;2.43;;;-0.20;99.90;;;;;;4878816;29;20224;-69
2023/02/05 08:32:07;;;;;;;7.13;2.80;;;-0.10;99.90;;;;;;4884644;29;20173;-69
2023/02/05 08:34:33;;;;;;;4.10;2.70;;;0.00;99.90;;;;;;4875651;29;20797;-69
2023/02/05 08:36:58;;;;;;;4.10;3.33;;;0.10;99.90;;;;;;4879911;29;20486;-69
2023/02/05 08:39:24;;;;;;;7.33;3.40;;;0.20;99.90;;;;;;4875096;29;20695;-69
2023/02/05 08:41:50;;;;;;;3.90;3.03;;;0.10;99.90;;;;;;4880165;29;20249;-69
2023/02/05 08:44:16;;;;;;;2.50;2.30;;;0.20;99.90;;;;;;4877682;29;20421;-69
2023/02/05 08:46:41;;;;;;;2.77;2.50;;;0.20;99.90;;;;;;4875096;29;20225;-69
2023/02/05 08:49:07;;;;;;;8.50;3.23;;;0.30;99.90;;;;;;4882698;29;20743;-69
2023/02/05 08:51:34;;;;;;;9.07;3.57;;;0.40;99.90;;;;;;4875095;29;20652;-69
2023/02/05 08:54:00;;;;;;;3.40;2.57;;;0.40;99.90;;;;;;4877401;29;20186;-69
2023/02/05 08:56:25;;;;;;;3.03;2.80;;;0.40;99.90;;;;;;4877959;29;20444;-69
2023/02/05 08:58:51;;;;;;;3.63;2.40;;;0.50;99.90;;;;;;4876488;29;20213;-68
2023/02/05 09:01:17;;;;;;;4.27;2.60;;;0.60;99.90;;;;;;4884805;29;20173;-69
2023/02/05 09:03:44;;;;;;;3.33;2.83;;;0.50;99.90;;;;;;4877045;29;20317;-70
2023/02/05 09:06:13;;;;;;;2.67;2.43;;;0.50;99.90;;;;;;4876931;29;20436;-68
2023/02/05 09:08:39;;;;;;;5.37;2.50;;;0.50;99.90;;;;;;4872672;29;20998;-70
2023/02/05 09:11:05;;;;;;;3.73;3.30;;;0.50;99.90;;;;;;4879051;29;20434;-70
2023/02/05 09:13:31;;;;;;;9.03;2.67;;;0.50;99.90;;;;;;4872248;29;20941;-69
2023/02/05 09:15:56;;;;;;;4.13;2.70;;;0.70;99.90;;;;;;4878583;29;20417;-70
2023/02/05 09:18:22;;;;;;;5.80;3.70;;;0.60;99.90;;;;;;4874371;29;20541;-70
2023/02/05 09:20:48;;;;;;;4.40;3.40;;;0.40;99.90;;;;;;4874850;29;20208;-69
2023/02/05 09:23:16;;;;;;;3.50;3.10;;;0.40;99.90;;;;;;4872968;29;20177;-68
2023/02/05 09:25:42;;;;;;;5.93;3.03;;;0.60;99.90;;;;;;4875212;29;20434;-70
2023/02/05 09:28:11;;;;;;;3.03;2.83;;;0.70;99.90;;;;;;4878098;29;20450;-70
2023/02/05 09:30:42;;;;;;;3.00;2.47;;;0.70;99.90;;;;;;4874973;29;20481;-70
2023/02/05 09:33:09;;;;;;;2.93;2.63;;;0.80;99.90;;;;;;4878409;29;20509;-70
2023/02/05 09:35:35;;;;;;;2.50;2.20;;;0.80;99.90;;;;;;4871755;29;20421;-70
2023/02/05 09:38:02;;;;;;;3.00;2.20;;;0.80;99.90;;;;;;4873610;29;20517;-69
2023/02/05 09:40:58;;;;;;;3.50;2.57;;;0.90;99.90;;;;;;4872604;29;20637;-69
2023/02/05 09:43:52;;;;;;;5.10;2.70;;;0.90;99.90;;;;;;4874293;29;20461;-72
2023/02/05 09:46:36;;;;;;;3.07;2.77;;;0.90;99.90;;;;;;4874923;29;20429;-69
2023/02/05 09:49:17;;;;;;;3.03;2.73;;;0.90;99.90;;;;;;4875692;29;20457;-69
2023/02/05 09:51:49;;;;;;;7.00;3.10;;;0.90;99.90;;;;;;4873296;29;20417;-69
2023/02/05 09:54:28;;;;;;;2.80;2.60;;;1.10;99.90;;;;;;4874999;29;20430;-69
2023/02/05 09:56:59;;;;;;;6.57;3.10;;;1.00;99.90;;;;;;4871799;29;20516;-70
2023/02/05 09:59:26;;;;;;;2.80;2.60;;;1.00;99.90;;;;;;4873115;29;20609;-68
2023/02/05 10:02:17;;;;;;;2.63;2.43;;;1.00;99.90;;;;;;4884397;29;20427;-69
2023/02/05 10:04:43;;;;;;;5.20;3.23;;;1.10;99.90;;;;;;4874690;29;20440;-69
2023/02/05 10:07:14;;;;;;;3.63;2.53;;;0.90;99.90;;;;;;4881836;29;20420;-70
2023/02/05 10:09:53;;;;;;;4.20;3.27;;;1.00;99.90;;;;;;4873812;29;20206;-69
2023/02/05 10:12:30;;;;;;;4.33;3.13;;;1.20;99.90;;;;;;4877042;29;20449;-69
2023/02/05 10:15:14;;;;;;;4.00;2.77;;;1.50;99.90;;;;;;4879272;29;20527;-70
2023/02/05 10:18:22;;;;;;;4.30;3.30;;;1.70;99.90;;;;;;4889970;29;20980;-69
2023/02/05 10:20:52;;;;;;;3.00;2.70;;;1.50;99.90;;;;;;4879492;29;20437;-68
2023/02/05 10:23:52;;;;;;;2.90;2.37;;;1.70;99.90;;;;;;4882472;29;20433;-69
2023/02/05 10:26:22;;;;;;;2.70;2.13;;;1.80;99.90;;;;;;4875374;29;20544;-69
2023/02/05 10:29:15;;;;;;;3.37;2.63;;;1.60;99.90;;;;;;4877067;29;20445;-71
2023/02/05 10:32:01;;;;;;;5.43;3.40;;;1.60;99.90;;;;;;4879223;29;20465;-71
2023/02/05 10:34:52;;;;;;;4.73;2.70;;;1.70;99.90;;;;;;4873924;29;20465;-71
2023/02/05 10:37:25;;;;;;;3.13;2.60;;;1.70;99.90;;;;;;4885510;29;20414;-70
2023/02/05 10:39:53;;;;;;;3.40;3.10;;;1.80;99.90;;;;;;4874908;29;20437;-70
2023/02/05 10:42:32;;;;;;;6.80;3.37;;;2.00;99.90;;;;;;4877189;29;20416;-70
2023/02/05 10:45:10;;;;;;;3.83;2.70;;;2.00;99.90;;;;;;4874219;29;20413;-70
2023/02/05 10:47:58;;;;;;;3.10;2.80;;;2.10;99.90;;;;;;4874207;29;20410;-70
2023/02/05 10:50:40;;;;;;;7.03;3.73;;;2.10;99.90;;;;;;4871168;29;20517;-70
2023/02/05 10:53:05;;;;;;;7.53;3.83;;;1.90;99.90;;;;;;4880767;29;20420;-71
2023/02/05 10:55:31;;;;;;;2.67;2.47;;;2.00;99.90;;;;;;4872092;29;20426;-69
2023/02/05 10:57:57;;;;;;;3.53;3.00;;;2.00;99.90;;;;;;4876260;29;20209;-69
2023/02/05 11:00:23;;;;;;;2.67;2.20;;;2.00;99.90;;;;;;4888795;29;20184;-71
2023/02/05 11:02:51;;;;;;;2.80;2.60;;;2.00;99.90;;;;;;4876233;29;20184;-69
2023/02/05 11:05:34;;;;;;;3.60;2.50;;;2.10;99.90;;;;;;4878379;29;20420;-69
2023/02/05 11:08:00;;;;;;;3.50;2.13;;;2.10;99.90;;;;;;4871076;29;20438;-69
2023/02/05 11:10:29;;;;;;;4.00;2.57;;;2.00;99.90;;;;;;4879130;29;20480;-70
2023/02/05 11:13:17;;;;;;;3.33;2.57;;;2.00;99.90;;;;;;4880260;29;20181;-70
2023/02/05 11:16:04;;;;;;;1.83;1.53;;;1.90;99.90;;;;;;4880128;29;20421;-70
2023/02/05 11:18:37;;;;;;;2.23;1.97;;;2.10;99.90;;;;;;4877926;29;20476;-70
2023/02/05 11:21:07;;;;;;;2.47;2.20;;;2.10;99.90;;;;;;4875776;29;20489;-69
2023/02/05 11:23:38;;;;;;;2.20;2.00;;;2.20;99.90;;;;;;4883588;29;20424;-70
2023/02/05 11:26:19;;;;;;;2.70;1.60;;;2.20;99.90;;;;;;4884026;29;20409;-70
2023/02/05 11:28:45;;;;;;;3.23;1.70;;;2.10;99.90;;;;;;4878691;29;20952;-70
2023/02/05 11:31:29;;;;;;;2.43;2.10;;;2.00;99.90;;;;;;4882032;29;20414;-70
2023/02/05 11:34:07;;;;;;;2.20;1.83;;;2.10;99.90;;;;;;4870449;29;20429;-70
2023/02/05 11:36:35;;;;;;;2.00;1.80;;;2.10;99.90;;;;;;4880822;29;20897;-70
2023/02/05 11:39:01;;;;;;;5.67;2.30;;;2.20;99.90;;;;;;4877209;29;21020;-70
2023/02/05 11:41:46;;;;;;;2.07;1.87;;;2.30;99.90;;;;;;4881147;29;20412;-70
2023/02/05 11:44:19;;;;;;;3.40;2.30;;;2.40;99.90;;;;;;4878258;29;20452;-70
2023/02/05 11:46:46;;;;;;;1.80;1.70;;;2.30;99.90;;;;;;4874519;29;20805;-70
2023/02/05 11:49:33;;;;;;;2.80;2.07;;;2.20;99.90;;;;;;4883580;29;20468;-69
2023/02/05 11:52:00;;;;;;;2.67;2.20;;;2.10;99.90;;;;;;4876684;29;20461;-70
2023/02/05 11:54:30;;;;;;;1.80;1.70;;;2.20;99.90;;;;;;4876546;29;20494;-70
2023/02/05 11:57:00;;;;;;;2.53;2.33;;;2.20;99.90;;;;;;4873913;29;20417;-70
2023/02/05 11:59:26;;;;;;;5.53;2.10;;;2.20;99.90;;;;;;4874375;29;20750;-70
2023/02/05 12:01:52;;;;;;;2.00;1.73;;;2.30;99.90;;;;;;4878794;29;20469;-70
2023/02/05 12:04:19;;;;;;;2.17;1.90;;;2.20;99.90;;;;;;4870763;29;20485;-69
2023/02/05 12:06:45;;;;;;;4.47;2.30;;;2.20;99.90;;;;;;4877996;29;20252;-70
2023/02/05 12:09:16;;;;;;;3.20;2.17;;;2.40;99.90;;;;;;4873878;29;20921;-69
2023/02/05 12:12:02;;;;;;;3.10;2.47;;;2.40;99.90;;;;;;4880037;29;20174;-69
2023/02/05 12:14:46;;;;;;;2.57;2.03;;;2.40;99.90;;;;;;4876936;29;20421;-69
2023/02/05 12:17:34;;;;;;;2.33;2.13;;;2.60;99.90;;;;;;4875306;29;20450;-72
2023/02/05 12:20:14;;;;;;;2.27;2.03;;;2.40;99.90;;;;;;4867924;29;20504;-70
2023/02/05 12:23:04;;;;;;;1.93;1.77;;;2.50;99.90;;;;;;4876351;29;20418;-69
2023/02/05 12:25:38;;;;;;;2.53;2.00;;;2.40;99.90;;;;;;4880411;29;20413;-69
2023/02/05 12:28:31;;;;;;;4.70;2.13;;;2.40;99.90;;;;;;4884359;29;20493;-69
2023/02/05 12:31:23;;;;;;;2.37;1.90;;;2.40;99.90;;;;;;4879739;29;20409;-70
2023/02/05 12:33:51;;;;;;;2.57;2.10;;;2.40;99.90;;;;;;4869206;29;20419;-70
2023/02/05 12:36:40;;;;;;;2.47;2.27;;;2.40;99.90;;;;;;4883147;29;20473;-69
2023/02/05 12:39:14;;;;;;;1.80;1.70;;;2.20;99.90;;;;;;4869150;29;20466;-70
2023/02/05 12:42:10;;;;;;;3.07;2.43;;;2.30;99.90;;;;;;4876322;29;20436;-69
2023/02/05 12:44:44;;;;;;;2.53;2.00;;;2.40;99.90;;;;;;4879738;29;20409;-69
2023/02/05 12:47:10;;;;;;;5.37;2.53;;;2.50;99.90;;;;;;4879226;29;20608;-69
2023/02/05 12:49:59;;;;;;;2.00;1.57;;;2.60;99.90;;;;;;4877879;29;20536;-70
2023/02/05 12:52:43;;;;;;;2.27;1.77;;;2.60;99.90;;;;;;4874978;29;20189;-69
2023/02/05 12:55:27;;;;;;;2.30;1.93;;;2.60;99.90;;;;;;4878449;29;20444;-69
2023/02/05 12:57:58;;;;;;;6.37;2.50;;;2.80;99.90;;;;;;4876437;29;20473;-70
2023/02/05 13:00:37;;;;;;;3.33;2.07;;;2.60;99.90;;;;;;4889208;29;20417;-69
2023/02/05 13:03:35;;;;;;;3.77;2.20;;;2.50;99.90;;;;;;4879837;29;20804;-69
2023/02/05 13:06:23;;;;;;;6.67;2.67;;;2.50;99.90;;;;;;4881407;29;20925;-70
2023/02/05 13:08:59;;;;;;;3.23;2.23;;;2.40;99.90;;;;;;4871683;29;20433;-68
2023/02/05 13:11:34;;;;;;;2.40;2.10;;;2.40;99.90;;;;;;4874823;29;20528;-69